Majesty of the Seas — C6FZ8 — position and weather

sailwx.info

Track history (hours):
 
Tides and Currents Weather Stations Pressure Air Temp Water Temp Dewpoint Dewpoint Depression Visibility Wind Speed Wind Dir Waves Ship Positions

Majesty of the Seas (Bahamas)

Last reported at 2015-May-07 06:00 UTC. Time now 2015-May-07 06:39 UTC.
Position N 25°12' W 080°00'.

Length 268 m; draft 7.6 m.

Type: Passenger vessel. MMSI: 311734000.

Wind from 050 at 5 knots

Barometer 1016.0 mb
Air temperature 24.1 ° C
Visibility: greater than 10.8 NM
Dewpoint 20.8 ° C
Water temperature 24.0 ° C

Date/timePositionNaut miles runAvg speedWind from/ knotsBaromVisibWave heightAir tempDewpointWater temp
2015-May-07 06:00N 25°12' W 080°00'5315.0 050 / 51016.010.8 24.120.824.0
2015-May-07 02:27N 25°54' W 079°24'114 5.6
2015-May-06 06:00N 25°18' W 077°24'48 2.0 180 / 91016.0 5.4 23.1 25.0
2015-May-05 06:00N 25°54' W 078°00'7612.6 060 / 171017.0 5.4 22.8 25.0
2015-May-05 00:00N 26°00' W 079°24'715.0 050 / 211018.7 24.020.7
2015-May-04 23:32N 26°00' W 079°32'1313.2
2015-May-04 22:33N 25°53' W 079°43'1212.2
2015-May-04 21:33N 25°49' W 079°56'1110.9
2015-May-04 20:33N 25°46' W 080°08'3 2.5
2015-May-04 19:23N 25°47' W 080°11'0 0.0
2015-May-04 17:26N 25°47' W 080°11'0 0.0
2015-May-04 15:23N 25°47' W 080°11'0 0.0
2015-May-04 14:26N 25°47' W 080°11'0 0.0
2015-May-04 12:26N 25°47' W 080°11'0 0.0
2015-May-04 11:26N 25°47' W 080°11'0 0.4
2015-May-04 10:33N 25°47' W 080°11'8 8.0
2015-May-04 09:33N 25°47' W 080°02'1010.0
2015-May-04 08:33N 25°51' W 079°52'1211.7
2015-May-04 07:33N 25°56' W 079°40'1211.9
2015-May-04 06:33N 26°01' W 079°28'1527.1
2015-May-04 06:00N 26°06' W 079°12'10016.7 060 / 151020.010.8 22.416.925.0
2015-May-04 00:00N 25°42' W 077°24'74 1.8 070 / 271018.0 23.016.0
2015-May-02 06:00N 26°06' W 078°42'48 8.8 030 / 111013.010.8 23.718.225.0
2015-May-02 00:31N 26°02' W 079°36'1010.2
2015-May-01 23:34N 25°57' W 079°45'1010.4
2015-May-01 22:33N 25°51' W 079°55'9 9.1
2015-May-01 21:33N 25°46' W 080°03'7 0.6
2015-May-01 10:33N 25°47' W 080°11'7 7.0
2015-May-01 09:33N 25°47' W 080°03'8 5.6
2015-May-01 08:10N 25°51' W 079°56'4 6.0
2015-May-01 07:33N 25°53' W 079°52'6 6.2
2015-May-01 06:33N 25°56' W 079°47'6 6.4
2015-May-01 05:33N 25°59' W 079°40'7 7.1
2015-May-01 04:33N 26°03' W 079°34'7 7.4
2015-May-01 03:33N 26°07' W 079°27'9 8.0
2015-May-01 02:22N 26°12' W 079°18'2711.2
2015-May-01 00:00N 26°12' W 078°48'   280 / 131009.0 24.518.6
2015-Apr-28 05:33N 26°32' W 078°45'43 5.2
2015-Apr-27 21:10N 26°07' W 079°26'1218.9
2015-Apr-27 20:33N 26°01' W 079°37'1919.2
2015-Apr-27 19:33N 25°51' W 079°55'1413.4
2015-Apr-27 18:32N 25°46' W 080°09'2 0.4
2015-Apr-27 14:26N 25°47' W 080°11'0 0.0
2015-Apr-27 11:29N 25°47' W 080°11'0 0.3
2015-Apr-27 10:29N 25°47' W 080°11'6 6.5
2015-Apr-27 09:31N 25°46' W 080°04'1111.1
2015-Apr-27 08:32N 25°51' W 079°53'1414.3
2015-Apr-27 07:33N 25°57' W 079°39'1817.1
2015-Apr-27 06:32N 26°04' W 079°21'1425.9
2015-Apr-27 06:00N 26°06' W 079°06'   310 / 221008.0 5.4 27.023.825.0
Track history (hours):
 
Tides and Currents Weather Stations Pressure Air Temp Water Temp Dewpoint Dewpoint Depression Visibility Wind Speed Wind Dir Waves Ship Positions

Majesty of the Seas (Bahamas)

Last reported at 2015-May-07 06:00 UTC. Time now 2015-May-07 06:39 UTC.
Position N 25°12' W 080°00'.

Length 268 m; draft 7.6 m.

Type: Passenger vessel. MMSI: 311734000.

Wind from 050 at 5 knots

Barometer 1016.0 mb
Air temperature 24.1 ° C
Visibility: greater than 10.8 NM
Dewpoint 20.8 ° C
Water temperature 24.0 ° C

Date/timePositionNaut miles runAvg speedWind from/ knotsBaromVisibWave heightAir tempDewpointWater temp
2015-May-07 06:00N 25°12' W 080°00'5315.0 050 / 51016.010.8 24.120.824.0
2015-May-07 02:27N 25°54' W 079°24'114 5.6
2015-May-06 06:00N 25°18' W 077°24'48 2.0 180 / 91016.0 5.4 23.1 25.0
2015-May-05 06:00N 25°54' W 078°00'7612.6 060 / 171017.0 5.4 22.8 25.0
2015-May-05 00:00N 26°00' W 079°24'715.0 050 / 211018.7 24.020.7
2015-May-04 23:32N 26°00' W 079°32'1313.2
2015-May-04 22:33N 25°53' W 079°43'1212.2
2015-May-04 21:33N 25°49' W 079°56'1110.9
2015-May-04 20:33N 25°46' W 080°08'3 2.5
2015-May-04 19:23N 25°47' W 080°11'0 0.0
2015-May-04 17:26N 25°47' W 080°11'0 0.0
2015-May-04 15:23N 25°47' W 080°11'0 0.0
2015-May-04 14:26N 25°47' W 080°11'0 0.0
2015-May-04 12:26N 25°47' W 080°11'0 0.0
2015-May-04 11:26N 25°47' W 080°11'0 0.4
2015-May-04 10:33N 25°47' W 080°11'8 8.0
2015-May-04 09:33N 25°47' W 080°02'1010.0
2015-May-04 08:33N 25°51' W 079°52'1211.7
2015-May-04 07:33N 25°56' W 079°40'1211.9
2015-May-04 06:33N 26°01' W 079°28'1527.1
2015-May-04 06:00N 26°06' W 079°12'10016.7 060 / 151020.010.8 22.416.925.0
2015-May-04 00:00N 25°42' W 077°24'74 1.8 070 / 271018.0 23.016.0
2015-May-02 06:00N 26°06' W 078°42'48 8.8 030 / 111013.010.8 23.718.225.0
2015-May-02 00:31N 26°02' W 079°36'1010.2
2015-May-01 23:34N 25°57' W 079°45'1010.4
2015-May-01 22:33N 25°51' W 079°55'9 9.1
2015-May-01 21:33N 25°46' W 080°03'7 0.6
2015-May-01 10:33N 25°47' W 080°11'7 7.0
2015-May-01 09:33N 25°47' W 080°03'8 5.6
2015-May-01 08:10N 25°51' W 079°56'4 6.0
2015-May-01 07:33N 25°53' W 079°52'6 6.2
2015-May-01 06:33N 25°56' W 079°47'6 6.4
2015-May-01 05:33N 25°59' W 079°40'7 7.1
2015-May-01 04:33N 26°03' W 079°34'7 7.4
2015-May-01 03:33N 26°07' W 079°27'9 8.0
2015-May-01 02:22N 26°12' W 079°18'2711.2
2015-May-01 00:00N 26°12' W 078°48'   280 / 131009.0 24.518.6
2015-Apr-28 05:33N 26°32' W 078°45'43 5.2
2015-Apr-27 21:10N 26°07' W 079°26'1218.9
2015-Apr-27 20:33N 26°01' W 079°37'1919.2
2015-Apr-27 19:33N 25°51' W 079°55'1413.4
2015-Apr-27 18:32N 25°46' W 080°09'2 0.4
2015-Apr-27 14:26N 25°47' W 080°11'0 0.0
2015-Apr-27 11:29N 25°47' W 080°11'0 0.3
2015-Apr-27 10:29N 25°47' W 080°11'6 6.5
2015-Apr-27 09:31N 25°46' W 080°04'1111.1
2015-Apr-27 08:32N 25°51' W 079°53'1414.3
2015-Apr-27 07:33N 25°57' W 079°39'1817.1
2015-Apr-27 06:32N 26°04' W 079°21'1425.9
2015-Apr-27 06:00N 26°06' W 079°06'   310 / 221008.0 5.4 27.023.825.0

Dump ship's entire track history